sensor_id;sensor_type;location;lat;lon;timestamp;pressure;altitude;pressure_sealevel;temperature;humidity
46756;BME280;32506;52.826;-1.192;2022-11-15T00:00:29;99628.06;;;11.34;67.04
46756;BME280;32506;52.826;-1.192;2022-11-15T00:02:55;99620.53;;;11.31;66.95
46756;BME280;32506;52.826;-1.192;2022-11-15T00:05:21;99617.50;;;11.28;66.47
46756;BME280;32506;52.826;-1.192;2022-11-15T00:07:46;99619.88;;;11.24;66.60
46756;BME280;32506;52.826;-1.192;2022-11-15T00:10:12;99615.81;;;11.21;66.58
46756;BME280;32506;52.826;-1.192;2022-11-15T00:12:38;99612.81;;;11.18;66.69
46756;BME280;32506;52.826;-1.192;2022-11-15T00:15:04;99603.66;;;11.14;66.36
46756;BME280;32506;52.826;-1.192;2022-11-15T00:17:29;99596.13;;;11.11;66.52
46756;BME280;32506;52.826;-1.192;2022-11-15T00:19:55;99594.13;;;11.06;66.42
46756;BME280;32506;52.826;-1.192;2022-11-15T00:22:21;99587.41;;;11.03;66.25
46756;BME280;32506;52.826;-1.192;2022-11-15T00:24:46;99590.31;;;11.02;66.36
46756;BME280;32506;52.826;-1.192;2022-11-15T00:27:12;99588.38;;;10.97;66.11
46756;BME280;32506;52.826;-1.192;2022-11-15T00:29:37;99588.84;;;10.94;66.34
46756;BME280;32506;52.826;-1.192;2022-11-15T00:32:04;99590.97;;;10.92;66.09
46756;BME280;32506;52.826;-1.192;2022-11-15T00:34:30;99589.00;;;10.87;66.23
46756;BME280;32506;52.826;-1.192;2022-11-15T00:36:55;99569.97;;;10.84;66.25
46756;BME280;32506;52.826;-1.192;2022-11-15T00:39:21;99565.31;;;10.79;65.88
46756;BME280;32506;52.826;-1.192;2022-11-15T00:41:46;99558.59;;;10.77;66.33
46756;BME280;32506;52.826;-1.192;2022-11-15T00:44:12;99556.41;;;10.73;65.98
46756;BME280;32506;52.826;-1.192;2022-11-15T00:46:37;99556.06;;;10.70;66.11
46756;BME280;32506;52.826;-1.192;2022-11-15T00:49:02;99543.44;;;10.65;66.00
46756;BME280;32506;52.826;-1.192;2022-11-15T00:51:28;99545.50;;;10.63;66.27
46756;BME280;32506;52.826;-1.192;2022-11-15T00:53:53;99542.53;;;10.60;66.27
46756;BME280;32506;52.826;-1.192;2022-11-15T00:56:19;99532.28;;;10.56;66.01
46756;BME280;32506;52.826;-1.192;2022-11-15T00:58:44;99530.34;;;10.52;66.04
46756;BME280;32506;52.826;-1.192;2022-11-15T01:01:12;99530.84;;;10.49;66.17
46756;BME280;32506;52.826;-1.192;2022-11-15T01:03:40;99523.28;;;10.46;66.32
46756;BME280;32506;52.826;-1.192;2022-11-15T01:06:06;99520.28;;;10.42;66.30
46756;BME280;32506;52.826;-1.192;2022-11-15T01:08:32;99508.22;;;10.39;66.20
46756;BME280;32506;52.826;-1.192;2022-11-15T01:11:07;99509.75;;;10.35;66.24
46756;BME280;32506;52.826;-1.192;2022-11-15T01:13:33;99499.47;;;10.32;66.08
46756;BME280;32506;52.826;-1.192;2022-11-15T01:16:08;99494.63;;;10.29;66.08
46756;BME280;32506;52.826;-1.192;2022-11-15T01:18:34;99485.22;;;10.27;66.22
46756;BME280;32506;52.826;-1.192;2022-11-15T01:21:04;99482.22;;;10.23;66.28
46756;BME280;32506;52.826;-1.192;2022-11-15T01:23:30;99476.31;;;10.21;66.29
46756;BME280;32506;52.826;-1.192;2022-11-15T01:25:59;99469.81;;;10.17;66.53
46756;BME280;32506;52.826;-1.192;2022-11-15T01:28:26;99464.13;;;10.13;66.52
46756;BME280;32506;52.826;-1.192;2022-11-15T01:30:57;99465.41;;;10.11;66.58
46756;BME280;32506;52.826;-1.192;2022-11-15T01:33:23;99463.00;;;10.09;66.31
46756;BME280;32506;52.826;-1.192;2022-11-15T01:35:48;99455.47;;;10.06;66.48
46756;BME280;32506;52.826;-1.192;2022-11-15T01:38:14;99453.84;;;10.05;66.61
46756;BME280;32506;52.826;-1.192;2022-11-15T01:40:39;99458.81;;;10.01;66.78
46756;BME280;32506;52.826;-1.192;2022-11-15T01:43:39;99457.19;;;10.00;66.58
46756;BME280;32506;52.826;-1.192;2022-11-15T01:48:47;99448.53;;;9.93;66.59
46756;BME280;32506;52.826;-1.192;2022-11-15T01:51:16;99450.63;;;9.91;66.96
46756;BME280;32506;52.826;-1.192;2022-11-15T01:53:45;99437.75;;;9.88;66.89
46756;BME280;32506;52.826;-1.192;2022-11-15T01:56:19;99432.63;;;9.86;66.85
46756;BME280;32506;52.826;-1.192;2022-11-15T01:58:47;99425.91;;;9.84;66.82
46756;BME280;32506;52.826;-1.192;2022-11-15T02:01:13;99420.03;;;9.82;66.85
46756;BME280;32506;52.826;-1.192;2022-11-15T02:06:31;99402.28;;;9.76;67.19
46756;BME280;32506;52.826;-1.192;2022-11-15T02:08:56;99394.50;;;9.74;67.06
46756;BME280;32506;52.826;-1.192;2022-11-15T02:11:23;99399.84;;;9.74;67.32
46756;BME280;32506;52.826;-1.192;2022-11-15T02:13:48;99385.91;;;9.72;67.53
46756;BME280;32506;52.826;-1.192;2022-11-15T02:16:39;99384.31;;;9.71;67.24
46756;BME280;32506;52.826;-1.192;2022-11-15T02:21:54;99372.47;;;9.67;67.62
46756;BME280;32506;52.826;-1.192;2022-11-15T02:30:24;99367.25;;;9.60;67.59
46756;BME280;32506;52.826;-1.192;2022-11-15T02:36:04;99360.78;;;9.56;67.56
46756;BME280;32506;52.826;-1.192;2022-11-15T02:39:00;99338.66;;;9.55;67.40
46756;BME280;32506;52.826;-1.192;2022-11-15T02:42:09;99333.56;;;9.54;67.57
46756;BME280;32506;52.826;-1.192;2022-11-15T02:44:58;99321.97;;;9.48;67.56
46756;BME280;32506;52.826;-1.192;2022-11-15T02:47:27;99313.97;;;9.48;67.61
46756;BME280;32506;52.826;-1.192;2022-11-15T02:49:58;99311.56;;;9.47;67.90
46756;BME280;32506;52.826;-1.192;2022-11-15T02:52:25;99304.59;;;9.46;67.60
46756;BME280;32506;52.826;-1.192;2022-11-15T02:57:32;99275.72;;;9.43;67.69
46756;BME280;32506;52.826;-1.192;2022-11-15T03:00:05;99277.56;;;9.42;67.81
46756;BME280;32506;52.826;-1.192;2022-11-15T03:05:43;99273.53;;;9.39;67.86
46756;BME280;32506;52.826;-1.192;2022-11-15T03:11:09;99254.50;;;9.36;67.82
46756;BME280;32506;52.826;-1.192;2022-11-15T03:16:46;99236.34;;;9.33;67.81
46756;BME280;32506;52.826;-1.192;2022-11-15T03:19:19;99239.25;;;9.31;67.84
46756;BME280;32506;52.826;-1.192;2022-11-15T03:21:49;99228.81;;;9.30;67.87
46756;BME280;32506;52.826;-1.192;2022-11-15T03:24:16;99222.91;;;9.28;68.18
46756;BME280;32506;52.826;-1.192;2022-11-15T03:26:43;99230.91;;;9.28;68.06
46756;BME280;32506;52.826;-1.192;2022-11-15T03:29:17;99227.44;;;9.27;68.07
46756;BME280;32506;52.826;-1.192;2022-11-15T03:31:47;99225.00;;;9.26;68.45
46756;BME280;32506;52.826;-1.192;2022-11-15T03:34:32;99228.72;;;9.24;68.38
46756;BME280;32506;52.826;-1.192;2022-11-15T03:37:00;99233.25;;;9.24;68.58
46756;BME280;32506;52.826;-1.192;2022-11-15T03:39:27;99217.47;;;9.22;69.04
46756;BME280;32506;52.826;-1.192;2022-11-15T03:44:51;99217.47;;;9.22;68.99
46756;BME280;32506;52.826;-1.192;2022-11-15T03:49:50;99204.97;;;9.23;69.13
46756;BME280;32506;52.826;-1.192;2022-11-15T03:52:19;99207.88;;;9.21;69.20
46756;BME280;32506;52.826;-1.192;2022-11-15T03:54:52;99204.13;;;9.22;69.39
46756;BME280;32506;52.826;-1.192;2022-11-15T03:57:18;99201.47;;;9.22;69.52
46756;BME280;32506;52.826;-1.192;2022-11-15T03:59:43;99200.44;;;9.23;69.33
46756;BME280;32506;52.826;-1.192;2022-11-15T04:02:09;99204.97;;;9.23;69.47
46756;BME280;32506;52.826;-1.192;2022-11-15T04:04:34;99199.38;;;9.24;69.56
46756;BME280;32506;52.826;-1.192;2022-11-15T04:07:00;99196.72;;;9.24;69.58
46756;BME280;32506;52.826;-1.192;2022-11-15T04:09:25;99191.16;;;9.26;69.33
46756;BME280;32506;52.826;-1.192;2022-11-15T04:11:51;99191.16;;;9.26;69.29
46756;BME280;32506;52.826;-1.192;2022-11-15T04:14:16;99182.91;;;9.28;69.45
46756;BME280;32506;52.826;-1.192;2022-11-15T04:16:41;99179.19;;;9.29;69.48
46756;BME280;32506;52.826;-1.192;2022-11-15T04:19:07;99182.66;;;9.29;69.63
46756;BME280;32506;52.826;-1.192;2022-11-15T04:21:51;99185.13;;;9.31;69.59
46756;BME280;32506;52.826;-1.192;2022-11-15T04:24:35;99177.91;;;9.31;69.75
46756;BME280;32506;52.826;-1.192;2022-11-15T04:27:01;99169.69;;;9.33;69.45
46756;BME280;32506;52.826;-1.192;2022-11-15T04:29:26;99156.34;;;9.33;69.62
46756;BME280;32506;52.826;-1.192;2022-11-15T04:32:03;99149.16;;;9.33;69.50
46756;BME280;32506;52.826;-1.192;2022-11-15T04:34:29;99140.94;;;9.35;69.43
46756;BME280;32506;52.826;-1.192;2022-11-15T04:36:54;99144.38;;;9.35;69.75
46756;BME280;32506;52.826;-1.192;2022-11-15T04:39:39;99146.00;;;9.36;69.61
46756;BME280;32506;52.826;-1.192;2022-11-15T04:42:05;99152.72;;;9.39;69.70
46756;BME280;32506;52.826;-1.192;2022-11-15T04:44:30;99137.53;;;9.39;69.65
46756;BME280;32506;52.826;-1.192;2022-11-15T04:46:56;99134.63;;;9.41;69.56
46756;BME280;32506;52.826;-1.192;2022-11-15T04:49:21;99121.28;;;9.41;69.33
46756;BME280;32506;52.826;-1.192;2022-11-15T04:51:48;99125.34;;;9.44;69.70
46756;BME280;32506;52.826;-1.192;2022-11-15T04:54:13;99105.88;;;9.43;69.79
46756;BME280;32506;52.826;-1.192;2022-11-15T04:56:39;99110.16;;;9.44;69.80
46756;BME280;32506;52.826;-1.192;2022-11-15T04:59:04;99105.38;;;9.46;70.03
46756;BME280;32506;52.826;-1.192;2022-11-15T05:01:30;99100.88;;;9.47;70.22
46756;BME280;32506;52.826;-1.192;2022-11-15T05:03:55;99099.56;;;9.49;70.21
46756;BME280;32506;52.826;-1.192;2022-11-15T05:06:39;99093.41;;;9.49;70.27
46756;BME280;32506;52.826;-1.192;2022-11-15T05:09:05;99076.13;;;9.51;70.21
46756;BME280;32506;52.826;-1.192;2022-11-15T05:11:30;99075.34;;;9.51;70.02
46756;BME280;32506;52.826;-1.192;2022-11-15T05:13:56;99063.59;;;9.52;69.74
46756;BME280;32506;52.826;-1.192;2022-11-15T05:16:21;99063.13;;;9.55;69.84
46756;BME280;32506;52.826;-1.192;2022-11-15T05:18:50;99057.78;;;9.55;69.89
46756;BME280;32506;52.826;-1.192;2022-11-15T05:21:16;99054.03;;;9.56;69.72
46756;BME280;32506;52.826;-1.192;2022-11-15T05:23:41;99050.34;;;9.57;69.48
46756;BME280;32506;52.826;-1.192;2022-11-15T05:26:08;99043.16;;;9.57;69.88
46756;BME280;32506;52.826;-1.192;2022-11-15T05:28:34;99025.28;;;9.58;69.60
46756;BME280;32506;52.826;-1.192;2022-11-15T05:31:01;99034.66;;;9.61;69.57
46756;BME280;32506;52.826;-1.192;2022-11-15T05:33:27;99015.75;;;9.62;69.71
46756;BME280;32506;52.826;-1.192;2022-11-15T05:36:00;99023.50;;;9.64;69.59
46756;BME280;32506;52.826;-1.192;2022-11-15T05:38:28;99022.69;;;9.63;69.55
46756;BME280;32506;52.826;-1.192;2022-11-15T05:40:54;99012.03;;;9.63;69.40
46756;BME280;32506;52.826;-1.192;2022-11-15T05:43:20;99000.06;;;9.66;69.69
46756;BME280;32506;52.826;-1.192;2022-11-15T05:45:46;99000.84;;;9.66;69.78
46756;BME280;32506;52.826;-1.192;2022-11-15T05:48:12;99007.81;;;9.67;69.49
46756;BME280;32506;52.826;-1.192;2022-11-15T05:50:39;99001.44;;;9.68;69.53
46756;BME280;32506;52.826;-1.192;2022-11-15T05:53:07;98992.34;;;9.69;69.61
46756;BME280;32506;52.826;-1.192;2022-11-15T05:55:33;98994.81;;;9.71;69.77
46756;BME280;32506;52.826;-1.192;2022-11-15T05:58:00;98992.13;;;9.71;69.92
46756;BME280;32506;52.826;-1.192;2022-11-15T06:00:26;98984.94;;;9.71;69.59
46756;BME280;32506;52.826;-1.192;2022-11-15T06:02:51;98982.81;;;9.73;69.89
46756;BME280;32506;52.826;-1.192;2022-11-15T06:05:17;98973.75;;;9.74;70.20
46756;BME280;32506;52.826;-1.192;2022-11-15T06:07:42;98964.72;;;9.76;70.04
46756;BME280;32506;52.826;-1.192;2022-11-15T06:10:10;98965.50;;;9.76;69.95
46756;BME280;32506;52.826;-1.192;2022-11-15T06:12:36;98971.66;;;9.77;69.82
46756;BME280;32506;52.826;-1.192;2022-11-15T06:15:02;98965.03;;;9.79;69.82
46756;BME280;32506;52.826;-1.192;2022-11-15T06:17:27;98968.50;;;9.80;69.90
46756;BME280;32506;52.826;-1.192;2022-11-15T06:19:53;98954.09;;;9.81;70.08
46756;BME280;32506;52.826;-1.192;2022-11-15T06:22:19;98959.19;;;9.82;70.15
46756;BME280;32506;52.826;-1.192;2022-11-15T06:24:44;98956.28;;;9.84;70.16
46756;BME280;32506;52.826;-1.192;2022-11-15T06:27:11;98948.28;;;9.84;70.10
46756;BME280;32506;52.826;-1.192;2022-11-15T06:29:36;98935.75;;;9.84;70.08
46756;BME280;32506;52.826;-1.192;2022-11-15T06:32:02;98932.00;;;9.85;70.11
46756;BME280;32506;52.826;-1.192;2022-11-15T06:34:27;98937.91;;;9.87;70.03
46756;BME280;32506;52.826;-1.192;2022-11-15T06:36:53;98930.69;;;9.88;70.30
46756;BME280;32506;52.826;-1.192;2022-11-15T06:39:18;98927.00;;;9.89;70.16
46756;BME280;32506;52.826;-1.192;2022-11-15T06:41:44;98920.59;;;9.90;70.23
46756;BME280;32506;52.826;-1.192;2022-11-15T06:44:09;98912.59;;;9.90;70.49
46756;BME280;32506;52.826;-1.192;2022-11-15T06:46:35;98914.22;;;9.91;70.35
46756;BME280;32506;52.826;-1.192;2022-11-15T06:49:00;98905.97;;;9.93;70.28
46756;BME280;32506;52.826;-1.192;2022-11-15T06:51:26;98908.38;;;9.94;70.25
46756;BME280;32506;52.826;-1.192;2022-11-15T06:53:51;98913.72;;;9.94;70.45
46756;BME280;32506;52.826;-1.192;2022-11-15T06:56:17;98904.66;;;9.95;70.58
46756;BME280;32506;52.826;-1.192;2022-11-15T06:58:42;98903.56;;;9.96;70.59
46756;BME280;32506;52.826;-1.192;2022-11-15T07:01:10;98909.75;;;9.97;70.81
46756;BME280;32506;52.826;-1.192;2022-11-15T07:03:41;98909.47;;;9.98;70.66
46756;BME280;32506;52.826;-1.192;2022-11-15T07:06:08;98904.94;;;9.99;70.56
46756;BME280;32506;52.826;-1.192;2022-11-15T07:08:34;98906.56;;;10.00;70.82
46756;BME280;32506;52.826;-1.192;2022-11-15T07:11:02;98899.13;;;10.02;70.74
46756;BME280;32506;52.826;-1.192;2022-11-15T07:13:30;98899.13;;;10.02;70.65
46756;BME280;32506;52.826;-1.192;2022-11-15T07:16:01;98896.19;;;10.03;70.80
46756;BME280;32506;52.826;-1.192;2022-11-15T07:18:26;98885.53;;;10.03;70.99
46756;BME280;32506;52.826;-1.192;2022-11-15T07:20:52;98884.47;;;10.04;70.99
46756;BME280;32506;52.826;-1.192;2022-11-15T07:23:18;98875.38;;;10.05;71.03
46756;BME280;32506;52.826;-1.192;2022-11-15T07:25:43;98873.53;;;10.06;71.13
46756;BME280;32506;52.826;-1.192;2022-11-15T07:28:09;98866.91;;;10.08;70.76
46756;BME280;32506;52.826;-1.192;2022-11-15T07:30:34;98869.56;;;10.08;70.90
46756;BME280;32506;52.826;-1.192;2022-11-15T07:33:00;98878.38;;;10.09;70.99
46756;BME280;32506;52.826;-1.192;2022-11-15T07:35:27;98863.97;;;10.10;71.19
46756;BME280;32506;52.826;-1.192;2022-11-15T07:37:57;98854.88;;;10.11;71.30
46756;BME280;32506;52.826;-1.192;2022-11-15T07:40:24;98853.03;;;10.12;71.34
46756;BME280;32506;52.826;-1.192;2022-11-15T07:42:49;98851.16;;;10.12;71.30
46756;BME280;32506;52.826;-1.192;2022-11-15T07:45:18;98847.44;;;10.13;71.29
46756;BME280;32506;52.826;-1.192;2022-11-15T07:47:48;98844.78;;;10.13;71.12
46756;BME280;32506;52.826;-1.192;2022-11-15T07:50:15;98844.53;;;10.15;71.46
46756;BME280;32506;52.826;-1.192;2022-11-15T07:52:41;98845.34;;;10.15;71.51
46756;BME280;32506;52.826;-1.192;2022-11-15T07:55:07;98847.50;;;10.18;71.17
46756;BME280;32506;52.826;-1.192;2022-11-15T07:57:32;98840.28;;;10.19;71.27
46756;BME280;32506;52.826;-1.192;2022-11-15T07:59:58;98842.16;;;10.18;71.31
46756;BME280;32506;52.826;-1.192;2022-11-15T08:02:23;98844.56;;;10.20;71.34
46756;BME280;32506;52.826;-1.192;2022-11-15T08:04:48;98826.69;;;10.20;71.21
46756;BME280;32506;52.826;-1.192;2022-11-15T08:07:14;98833.63;;;10.21;71.33
46756;BME280;32506;52.826;-1.192;2022-11-15T08:09:39;98828.88;;;10.23;71.68
46756;BME280;32506;52.826;-1.192;2022-11-15T08:12:05;98824.31;;;10.24;71.53
46756;BME280;32506;52.826;-1.192;2022-11-15T08:14:30;98825.94;;;10.25;71.32
46756;BME280;32506;52.826;-1.192;2022-11-15T08:16:56;98830.22;;;10.26;71.17
46756;BME280;32506;52.826;-1.192;2022-11-15T08:19:22;98824.63;;;10.28;71.28
46756;BME280;32506;52.826;-1.192;2022-11-15T08:21:47;98811.28;;;10.28;71.32
46756;BME280;32506;52.826;-1.192;2022-11-15T08:24:13;98811.00;;;10.29;71.79
46756;BME280;32506;52.826;-1.192;2022-11-15T08:26:39;98807.56;;;10.29;71.79
46756;BME280;32506;52.826;-1.192;2022-11-15T08:29:05;98801.13;;;10.30;71.75
46756;BME280;32506;52.826;-1.192;2022-11-15T08:31:31;98799.03;;;10.32;71.83
46756;BME280;32506;52.826;-1.192;2022-11-15T08:33:56;98793.44;;;10.33;71.85
46756;BME280;32506;52.826;-1.192;2022-11-15T08:36:22;98793.44;;;10.33;72.05
46756;BME280;32506;52.826;-1.192;2022-11-15T08:38:48;98781.69;;;10.34;71.91
46756;BME280;32506;52.826;-1.192;2022-11-15T08:41:34;98774.25;;;10.36;71.82
46756;BME280;32506;52.826;-1.192;2022-11-15T08:44:01;98775.06;;;10.37;71.86
46756;BME280;32506;52.826;-1.192;2022-11-15T08:46:27;98764.13;;;10.38;72.03
46756;BME280;32506;52.826;-1.192;2022-11-15T08:48:52;98755.84;;;10.40;71.90
46756;BME280;32506;52.826;-1.192;2022-11-15T08:51:18;98747.84;;;10.40;72.01
46756;BME280;32506;52.826;-1.192;2022-11-15T08:53:43;98749.19;;;10.43;72.09
46756;BME280;32506;52.826;-1.192;2022-11-15T08:56:11;98741.19;;;10.43;71.84
46756;BME280;32506;52.826;-1.192;2022-11-15T08:58:37;98738.00;;;10.46;72.08
46756;BME280;32506;52.826;-1.192;2022-11-15T09:01:03;98746.84;;;10.46;72.45
46756;BME280;32506;52.826;-1.192;2022-11-15T09:03:29;98738.81;;;10.46;72.23
46756;BME280;32506;52.826;-1.192;2022-11-15T09:05:55;98720.66;;;10.48;72.54
46756;BME280;32506;52.826;-1.192;2022-11-15T09:08:29;98736.16;;;10.51;73.06
46756;BME280;32506;52.826;-1.192;2022-11-15T09:11:05;98725.47;;;10.51;72.53
46756;BME280;32506;52.826;-1.192;2022-11-15T09:13:31;98707.34;;;10.53;72.66
46756;BME280;32506;52.826;-1.192;2022-11-15T09:15:58;98706.28;;;10.54;72.78
46756;BME280;32506;52.826;-1.192;2022-11-15T09:18:24;98699.06;;;10.55;73.13
46756;BME280;32506;52.826;-1.192;2022-11-15T09:20:50;98690.78;;;10.56;72.75
46756;BME280;32506;52.826;-1.192;2022-11-15T09:23:15;98683.31;;;10.58;73.02
46756;BME280;32506;52.826;-1.192;2022-11-15T09:25:41;98682.28;;;10.60;73.02
46756;BME280;32506;52.826;-1.192;2022-11-15T09:28:07;98676.66;;;10.61;73.04
46756;BME280;32506;52.826;-1.192;2022-11-15T09:30:32;98674.00;;;10.61;72.93
46756;BME280;32506;52.826;-1.192;2022-11-15T09:32:58;98672.69;;;10.64;72.92
46756;BME280;32506;52.826;-1.192;2022-11-15T09:35:23;98667.06;;;10.65;72.85
46756;BME280;32506;52.826;-1.192;2022-11-15T09:37:49;98657.19;;;10.66;73.03
46756;BME280;32506;52.826;-1.192;2022-11-15T09:40:16;98656.13;;;10.67;72.99
46756;BME280;32506;52.826;-1.192;2022-11-15T09:42:56;98647.84;;;10.68;73.19
46756;BME280;32506;52.826;-1.192;2022-11-15T09:45:31;98650.25;;;10.70;72.81
46756;BME280;32506;52.826;-1.192;2022-11-15T09:50:50;98653.22;;;10.73;73.32
46756;BME280;32506;52.826;-1.192;2022-11-15T09:53:46;98636.13;;;10.74;73.26
46756;BME280;32506;52.826;-1.192;2022-11-15T09:56:20;98643.03;;;10.75;73.29
46756;BME280;32506;52.826;-1.192;2022-11-15T09:59:15;98631.31;;;10.77;73.37
46756;BME280;32506;52.826;-1.192;2022-11-15T10:04:25;98628.91;;;10.80;73.41
46756;BME280;32506;52.826;-1.192;2022-11-15T10:12:22;98605.94;;;10.84;73.64
46756;BME280;32506;52.826;-1.192;2022-11-15T10:14:50;98602.22;;;10.85;73.86
46756;BME280;32506;52.826;-1.192;2022-11-15T10:20:25;98590.72;;;10.90;73.95
46756;BME280;32506;52.826;-1.192;2022-11-15T10:22:54;98587.56;;;10.93;74.15
46756;BME280;32506;52.826;-1.192;2022-11-15T10:25:26;98588.06;;;10.95;73.84
46756;BME280;32506;52.826;-1.192;2022-11-15T10:28:13;98570.97;;;10.96;73.92
46756;BME280;32506;52.826;-1.192;2022-11-15T10:30:48;98577.66;;;10.99;74.25
46756;BME280;32506;52.826;-1.192;2022-11-15T10:35:44;98579.00;;;11.01;74.21
46756;BME280;32506;52.826;-1.192;2022-11-15T10:38:11;98581.41;;;11.03;74.23
46756;BME280;32506;52.826;-1.192;2022-11-15T10:40:39;98573.66;;;11.06;74.15
46756;BME280;32506;52.826;-1.192;2022-11-15T10:43:15;98561.88;;;11.07;74.08
46756;BME280;32506;52.826;-1.192;2022-11-15T10:45:42;98554.69;;;11.08;74.40
46756;BME280;32506;52.826;-1.192;2022-11-15T10:50:49;98546.66;;;11.13;74.32
46756;BME280;32506;52.826;-1.192;2022-11-15T10:53:41;98545.59;;;11.14;74.40
46756;BME280;32506;52.826;-1.192;2022-11-15T10:56:13;98544.25;;;11.17;74.37
46756;BME280;32506;52.826;-1.192;2022-11-15T10:58:50;98541.31;;;11.18;74.58
46756;BME280;32506;52.826;-1.192;2022-11-15T11:01:19;98531.16;;;11.20;74.25
46756;BME280;32506;52.826;-1.192;2022-11-15T11:04:07;98536.78;;;11.24;74.49
46756;BME280;32506;52.826;-1.192;2022-11-15T11:06:51;98533.03;;;11.25;74.63
46756;BME280;32506;52.826;-1.192;2022-11-15T11:09:28;98537.31;;;11.26;74.89
46756;BME280;32506;52.826;-1.192;2022-11-15T11:11:56;98514.88;;;11.27;74.65
46756;BME280;32506;52.826;-1.192;2022-11-15T11:14:33;98502.00;;;11.29;74.48
46756;BME280;32506;52.826;-1.192;2022-11-15T11:17:23;98498.81;;;11.32;74.70
46756;BME280;32506;52.826;-1.192;2022-11-15T11:20:25;98489.69;;;11.33;74.89
46756;BME280;32506;52.826;-1.192;2022-11-15T11:29:16;98446.13;;;11.38;74.46
46756;BME280;32506;52.826;-1.192;2022-11-15T11:35:46;98437.56;;;11.41;74.77
46756;BME280;32506;52.826;-1.192;2022-11-15T11:43:33;98428.72;;;11.46;74.61
46756;BME280;32506;52.826;-1.192;2022-11-15T11:48:31;98435.94;;;11.50;74.83
46756;BME280;32506;52.826;-1.192;2022-11-15T11:51:13;98429.50;;;11.51;74.61
46756;BME280;32506;52.826;-1.192;2022-11-15T11:53:54;98425.50;;;11.54;74.89
46756;BME280;32506;52.826;-1.192;2022-11-15T11:56:28;98412.63;;;11.56;74.85
46756;BME280;32506;52.826;-1.192;2022-11-15T11:59:00;98412.34;;;11.57;74.53
46756;BME280;32506;52.826;-1.192;2022-11-15T12:01:36;98417.19;;;11.61;74.65
46756;BME280;32506;52.826;-1.192;2022-11-15T12:06:58;98404.03;;;11.64;74.79
46756;BME280;32506;52.826;-1.192;2022-11-15T12:12:16;98415.84;;;11.68;74.59
46756;BME280;32506;52.826;-1.192;2022-11-15T12:17:33;98396.81;;;11.70;74.74
46756;BME280;32506;52.826;-1.192;2022-11-15T12:20:02;98405.34;;;11.72;74.86
46756;BME280;32506;52.826;-1.192;2022-11-15T12:31:18;98385.81;;;11.77;74.42
46756;BME280;32506;52.826;-1.192;2022-11-15T12:33:47;98375.63;;;11.79;74.84
46756;BME280;32506;52.826;-1.192;2022-11-15T12:41:16;98365.19;;;11.82;74.72
46756;BME280;32506;52.826;-1.192;2022-11-15T12:43:46;98364.91;;;11.84;74.54
46756;BME280;32506;52.826;-1.192;2022-11-15T12:52:07;98359.81;;;11.87;74.78
46756;BME280;32506;52.826;-1.192;2022-11-15T13:17:52;98327.41;;;11.99;74.63
46756;BME280;32506;52.826;-1.192;2022-11-15T13:20:31;98325.22;;;12.01;74.72
46756;BME280;32506;52.826;-1.192;2022-11-15T13:23:10;98316.91;;;12.03;74.65
46756;BME280;32506;52.826;-1.192;2022-11-15T13:28:37;98288.50;;;12.07;74.88
46756;BME280;32506;52.826;-1.192;2022-11-15T13:33:48;98261.56;;;12.33;74.90
46756;BME280;32506;52.826;-1.192;2022-11-15T13:36:22;98255.16;;;12.58;74.52
46756;BME280;32506;52.826;-1.192;2022-11-15T13:39:26;98253.94;;;12.74;74.09
46756;BME280;32506;52.826;-1.192;2022-11-15T13:41:52;98227.25;;;12.88;74.55
46756;BME280;32506;52.826;-1.192;2022-11-15T13:44:31;98218.59;;;13.16;73.98
46756;BME280;32506;52.826;-1.192;2022-11-15T13:47:15;98223.81;;;13.50;73.85
46756;BME280;32506;52.826;-1.192;2022-11-15T13:49:41;98234.06;;;13.86;73.10
46756;BME280;32506;52.826;-1.192;2022-11-15T13:52:10;98238.44;;;14.15;72.87
46756;BME280;32506;52.826;-1.192;2022-11-15T13:54:52;98251.47;;;14.55;72.17
46756;BME280;32506;52.826;-1.192;2022-11-15T13:57:24;98249.06;;;15.00;71.69
46756;BME280;32506;52.826;-1.192;2022-11-15T13:59:55;98269.25;;;15.53;70.97
46756;BME280;32506;52.826;-1.192;2022-11-15T14:02:28;98273.69;;;15.86;69.95
46756;BME280;32506;52.826;-1.192;2022-11-15T14:05:23;98283.94;;;15.98;69.77
46756;BME280;32506;52.826;-1.192;2022-11-15T14:08:23;98285.22;;;16.00;69.34
46756;BME280;32506;52.826;-1.192;2022-11-15T14:11:06;98282.63;;;15.95;69.52
46756;BME280;32506;52.826;-1.192;2022-11-15T14:13:31;98281.47;;;15.87;69.51
46756;BME280;32506;52.826;-1.192;2022-11-15T14:18:50;98296.66;;;15.69;69.77
46756;BME280;32506;52.826;-1.192;2022-11-15T14:21:18;98290.69;;;15.58;69.57
46756;BME280;32506;52.826;-1.192;2022-11-15T14:23:43;98297.09;;;15.49;69.66
46756;BME280;32506;52.826;-1.192;2022-11-15T14:26:33;98293.19;;;15.41;69.48
46756;BME280;32506;52.826;-1.192;2022-11-15T14:29:21;98296.91;;;15.31;69.40
46756;BME280;32506;52.826;-1.192;2022-11-15T14:31:46;98296.78;;;15.22;68.98
46756;BME280;32506;52.826;-1.192;2022-11-15T14:34:12;98313.63;;;15.14;69.23
46756;BME280;32506;52.826;-1.192;2022-11-15T14:36:37;98310.84;;;15.05;69.07
46756;BME280;32506;52.826;-1.192;2022-11-15T14:39:03;98316.63;;;14.99;69.14
46756;BME280;32506;52.826;-1.192;2022-11-15T14:41:35;98307.34;;;14.91;68.94
46756;BME280;32506;52.826;-1.192;2022-11-15T14:44:03;98316.09;;;14.83;68.79
46756;BME280;32506;52.826;-1.192;2022-11-15T14:46:29;98324.84;;;14.74;68.88
46756;BME280;32506;52.826;-1.192;2022-11-15T14:48:55;98321.72;;;14.67;68.90
46756;BME280;32506;52.826;-1.192;2022-11-15T14:51:20;98324.75;;;14.60;68.92
46756;BME280;32506;52.826;-1.192;2022-11-15T14:53:46;98330.50;;;14.54;68.70
46756;BME280;32506;52.826;-1.192;2022-11-15T14:56:12;98335.19;;;14.48;69.20
46756;BME280;32506;52.826;-1.192;2022-11-15T14:58:38;98336.63;;;14.40;69.31
46756;BME280;32506;52.826;-1.192;2022-11-15T15:01:25;98351.75;;;14.36;69.38
46756;BME280;32506;52.826;-1.192;2022-11-15T15:03:51;98358.56;;;14.29;69.57
46756;BME280;32506;52.826;-1.192;2022-11-15T15:06:18;98356.78;;;14.24;69.38
46756;BME280;32506;52.826;-1.192;2022-11-15T15:08:44;98360.31;;;14.19;69.36
46756;BME280;32506;52.826;-1.192;2022-11-15T15:11:16;98350.75;;;14.13;69.31
46756;BME280;32506;52.826;-1.192;2022-11-15T15:13:43;98360.78;;;14.07;69.17
46756;BME280;32506;52.826;-1.192;2022-11-15T15:16:09;98357.06;;;14.03;69.31